sensor_id;sensor_type;location;lat;lon;timestamp;P1;durP1;ratioP1;P2;durP2;ratioP2
16179;SDS011;8196;49.428;10.906;2023-03-12T00:01:20;9.55;;;6.43;;
16179;SDS011;8196;49.428;10.906;2023-03-12T00:03:48;9.00;;;6.57;;
16179;SDS011;8196;49.428;10.906;2023-03-12T00:06:16;7.72;;;5.95;;
16179;SDS011;8196;49.428;10.906;2023-03-12T00:08:43;8.15;;;6.00;;
16179;SDS011;8196;49.428;10.906;2023-03-12T00:11:11;9.32;;;6.57;;
16179;SDS011;8196;49.428;10.906;2023-03-12T00:13:40;9.18;;;6.15;;
16179;SDS011;8196;49.428;10.906;2023-03-12T00:16:08;9.77;;;6.88;;
16179;SDS011;8196;49.428;10.906;2023-03-12T00:18:37;8.00;;;6.20;;
16179;SDS011;8196;49.428;10.906;2023-03-12T00:21:04;8.27;;;6.25;;
16179;SDS011;8196;49.428;10.906;2023-03-12T00:23:31;9.70;;;7.00;;
16179;SDS011;8196;49.428;10.906;2023-03-12T00:26:01;8.65;;;6.72;;
16179;SDS011;8196;49.428;10.906;2023-03-12T00:28:29;8.02;;;5.95;;
16179;SDS011;8196;49.428;10.906;2023-03-12T00:30:56;9.80;;;6.40;;
16179;SDS011;8196;49.428;10.906;2023-03-12T00:33:24;9.55;;;6.88;;
16179;SDS011;8196;49.428;10.906;2023-03-12T00:35:51;7.70;;;6.28;;
16179;SDS011;8196;49.428;10.906;2023-03-12T00:38:19;7.60;;;6.03;;
16179;SDS011;8196;49.428;10.906;2023-03-12T00:40:46;8.48;;;6.28;;
16179;SDS011;8196;49.428;10.906;2023-03-12T00:43:13;8.25;;;5.97;;
16179;SDS011;8196;49.428;10.906;2023-03-12T00:45:40;8.32;;;6.20;;
16179;SDS011;8196;49.428;10.906;2023-03-12T00:48:06;8.82;;;6.13;;
16179;SDS011;8196;49.428;10.906;2023-03-12T00:50:34;8.10;;;6.00;;
16179;SDS011;8196;49.428;10.906;2023-03-12T00:53:00;8.30;;;6.43;;
16179;SDS011;8196;49.428;10.906;2023-03-12T00:55:27;9.65;;;6.85;;
16179;SDS011;8196;49.428;10.906;2023-03-12T00:57:54;9.68;;;6.60;;
16179;SDS011;8196;49.428;10.906;2023-03-12T01:00:21;8.88;;;6.80;;
16179;SDS011;8196;49.428;10.906;2023-03-12T01:02:47;9.48;;;7.25;;
16179;SDS011;8196;49.428;10.906;2023-03-12T01:05:14;11.18;;;7.70;;
16179;SDS011;8196;49.428;10.906;2023-03-12T01:07:43;10.30;;;7.45;;
16179;SDS011;8196;49.428;10.906;2023-03-12T01:10:12;9.45;;;7.20;;
16179;SDS011;8196;49.428;10.906;2023-03-12T01:12:40;11.15;;;8.00;;
16179;SDS011;8196;49.428;10.906;2023-03-12T01:15:08;8.57;;;6.60;;
16179;SDS011;8196;49.428;10.906;2023-03-12T01:17:37;9.57;;;7.05;;
16179;SDS011;8196;49.428;10.906;2023-03-12T01:20:04;10.00;;;7.50;;
16179;SDS011;8196;49.428;10.906;2023-03-12T01:22:31;9.73;;;7.72;;
16179;SDS011;8196;49.428;10.906;2023-03-12T01:24:58;10.07;;;7.38;;
16179;SDS011;8196;49.428;10.906;2023-03-12T01:27:25;8.25;;;6.72;;
16179;SDS011;8196;49.428;10.906;2023-03-12T01:32:18;8.35;;;6.32;;
16179;SDS011;8196;49.428;10.906;2023-03-12T01:34:45;14.65;;;8.20;;
16179;SDS011;8196;49.428;10.906;2023-03-12T01:37:12;10.73;;;8.60;;
16179;SDS011;8196;49.428;10.906;2023-03-12T01:39:38;12.20;;;9.27;;
16179;SDS011;8196;49.428;10.906;2023-03-12T01:42:05;10.90;;;8.45;;
16179;SDS011;8196;49.428;10.906;2023-03-12T01:44:48;11.10;;;8.27;;
16179;SDS011;8196;49.428;10.906;2023-03-12T01:47:16;9.98;;;8.00;;
16179;SDS011;8196;49.428;10.906;2023-03-12T01:49:43;11.20;;;8.10;;
16179;SDS011;8196;49.428;10.906;2023-03-12T01:52:12;9.38;;;7.20;;
16179;SDS011;8196;49.428;10.906;2023-03-12T01:54:43;10.48;;;7.40;;
16179;SDS011;8196;49.428;10.906;2023-03-12T01:57:19;8.25;;;6.75;;
16179;SDS011;8196;49.428;10.906;2023-03-12T01:59:52;9.13;;;6.90;;
16179;SDS011;8196;49.428;10.906;2023-03-12T02:02:22;9.45;;;6.72;;
16179;SDS011;8196;49.428;10.906;2023-03-12T02:04:55;8.82;;;6.70;;
16179;SDS011;8196;49.428;10.906;2023-03-12T02:07:30;8.32;;;6.43;;
16179;SDS011;8196;49.428;10.906;2023-03-12T02:09:58;7.50;;;6.40;;
16179;SDS011;8196;49.428;10.906;2023-03-12T02:12:25;9.68;;;7.13;;
16179;SDS011;8196;49.428;10.906;2023-03-12T02:14:52;8.93;;;6.80;;
16179;SDS011;8196;49.428;10.906;2023-03-12T02:17:18;7.97;;;6.53;;
16179;SDS011;8196;49.428;10.906;2023-03-12T02:19:54;9.13;;;6.65;;
16179;SDS011;8196;49.428;10.906;2023-03-12T02:22:45;8.83;;;6.37;;
16179;SDS011;8196;49.428;10.906;2023-03-12T02:25:36;10.70;;;7.75;;
16179;SDS011;8196;49.428;10.906;2023-03-12T02:28:07;7.88;;;6.60;;
16179;SDS011;8196;49.428;10.906;2023-03-12T02:30:35;8.77;;;6.78;;
16179;SDS011;8196;49.428;10.906;2023-03-12T02:33:04;7.97;;;6.53;;
16179;SDS011;8196;49.428;10.906;2023-03-12T02:35:32;12.18;;;6.70;;
16179;SDS011;8196;49.428;10.906;2023-03-12T02:38:00;9.20;;;6.80;;
16179;SDS011;8196;49.428;10.906;2023-03-12T02:40:30;8.88;;;6.80;;
16179;SDS011;8196;49.428;10.906;2023-03-12T02:43:03;8.98;;;6.55;;
16179;SDS011;8196;49.428;10.906;2023-03-12T02:45:32;9.52;;;7.32;;
16179;SDS011;8196;49.428;10.906;2023-03-12T02:48:04;9.25;;;7.13;;
16179;SDS011;8196;49.428;10.906;2023-03-12T02:50:33;7.72;;;5.93;;
16179;SDS011;8196;49.428;10.906;2023-03-12T02:53:00;9.32;;;6.70;;
16179;SDS011;8196;49.428;10.906;2023-03-12T02:55:27;8.10;;;6.65;;
16179;SDS011;8196;49.428;10.906;2023-03-12T02:57:53;9.10;;;7.05;;
16179;SDS011;8196;49.428;10.906;2023-03-12T03:00:20;8.98;;;6.50;;
16179;SDS011;8196;49.428;10.906;2023-03-12T03:02:47;10.37;;;7.00;;
16179;SDS011;8196;49.428;10.906;2023-03-12T03:05:14;8.50;;;6.70;;
16179;SDS011;8196;49.428;10.906;2023-03-12T03:07:40;9.55;;;6.45;;
16179;SDS011;8196;49.428;10.906;2023-03-12T03:10:07;9.88;;;7.18;;
16179;SDS011;8196;49.428;10.906;2023-03-12T03:12:35;9.85;;;6.90;;
16179;SDS011;8196;49.428;10.906;2023-03-12T03:15:02;8.27;;;6.82;;
16179;SDS011;8196;49.428;10.906;2023-03-12T03:17:30;8.73;;;6.30;;
16179;SDS011;8196;49.428;10.906;2023-03-12T03:19:57;7.63;;;6.10;;
16179;SDS011;8196;49.428;10.906;2023-03-12T03:22:23;7.63;;;6.13;;
16179;SDS011;8196;49.428;10.906;2023-03-12T03:24:51;8.98;;;6.40;;
16179;SDS011;8196;49.428;10.906;2023-03-12T03:27:19;7.85;;;6.15;;
16179;SDS011;8196;49.428;10.906;2023-03-12T03:29:46;9.67;;;6.70;;
16179;SDS011;8196;49.428;10.906;2023-03-12T03:32:13;7.63;;;6.38;;
16179;SDS011;8196;49.428;10.906;2023-03-12T03:34:40;9.13;;;6.77;;
16179;SDS011;8196;49.428;10.906;2023-03-12T03:37:06;9.48;;;6.82;;
16179;SDS011;8196;49.428;10.906;2023-03-12T03:39:33;9.40;;;6.90;;
16179;SDS011;8196;49.428;10.906;2023-03-12T03:42:00;9.13;;;6.63;;
16179;SDS011;8196;49.428;10.906;2023-03-12T03:44:26;8.40;;;6.50;;
16179;SDS011;8196;49.428;10.906;2023-03-12T03:46:53;9.32;;;7.38;;
16179;SDS011;8196;49.428;10.906;2023-03-12T03:49:20;9.07;;;6.75;;
16179;SDS011;8196;49.428;10.906;2023-03-12T03:51:48;8.25;;;6.88;;
16179;SDS011;8196;49.428;10.906;2023-03-12T03:54:16;8.35;;;6.30;;
16179;SDS011;8196;49.428;10.906;2023-03-12T03:56:44;8.10;;;6.80;;
16179;SDS011;8196;49.428;10.906;2023-03-12T03:59:11;7.95;;;5.90;;
16179;SDS011;8196;49.428;10.906;2023-03-12T04:01:37;8.25;;;6.30;;
16179;SDS011;8196;49.428;10.906;2023-03-12T04:04:04;7.60;;;6.07;;
16179;SDS011;8196;49.428;10.906;2023-03-12T04:06:31;8.75;;;6.45;;
16179;SDS011;8196;49.428;10.906;2023-03-12T04:08:58;7.30;;;6.47;;
16179;SDS011;8196;49.428;10.906;2023-03-12T04:11:25;7.43;;;6.07;;
16179;SDS011;8196;49.428;10.906;2023-03-12T04:13:52;9.63;;;6.75;;
16179;SDS011;8196;49.428;10.906;2023-03-12T04:16:20;8.47;;;6.80;;
16179;SDS011;8196;49.428;10.906;2023-03-12T04:18:47;7.78;;;6.70;;
16179;SDS011;8196;49.428;10.906;2023-03-12T04:21:14;9.15;;;6.88;;
16179;SDS011;8196;49.428;10.906;2023-03-12T04:23:41;10.23;;;6.70;;
16179;SDS011;8196;49.428;10.906;2023-03-12T04:26:08;9.38;;;7.10;;
16179;SDS011;8196;49.428;10.906;2023-03-12T04:28:35;8.43;;;7.18;;
16179;SDS011;8196;49.428;10.906;2023-03-12T04:31:03;9.55;;;7.32;;
16179;SDS011;8196;49.428;10.906;2023-03-12T04:33:33;8.70;;;7.38;;
16179;SDS011;8196;49.428;10.906;2023-03-12T04:36:02;9.35;;;7.53;;
16179;SDS011;8196;49.428;10.906;2023-03-12T04:38:29;8.73;;;7.47;;
16179;SDS011;8196;49.428;10.906;2023-03-12T04:41:04;9.00;;;7.70;;
16179;SDS011;8196;49.428;10.906;2023-03-12T04:43:33;9.65;;;7.40;;
16179;SDS011;8196;49.428;10.906;2023-03-12T04:46:01;9.57;;;7.53;;
16179;SDS011;8196;49.428;10.906;2023-03-12T04:48:28;10.00;;;7.53;;
16179;SDS011;8196;49.428;10.906;2023-03-12T04:50:55;9.38;;;7.43;;
16179;SDS011;8196;49.428;10.906;2023-03-12T04:53:22;9.93;;;7.38;;
16179;SDS011;8196;49.428;10.906;2023-03-12T04:55:50;10.15;;;7.47;;
16179;SDS011;8196;49.428;10.906;2023-03-12T04:58:17;9.30;;;7.10;;
16179;SDS011;8196;49.428;10.906;2023-03-12T05:00:45;10.57;;;8.30;;
16179;SDS011;8196;49.428;10.906;2023-03-12T05:03:13;8.95;;;7.70;;
16179;SDS011;8196;49.428;10.906;2023-03-12T05:05:39;10.07;;;7.70;;
16179;SDS011;8196;49.428;10.906;2023-03-12T05:08:06;9.52;;;7.50;;
16179;SDS011;8196;49.428;10.906;2023-03-12T05:10:33;9.23;;;7.55;;
16179;SDS011;8196;49.428;10.906;2023-03-12T05:13:00;10.88;;;7.55;;
16179;SDS011;8196;49.428;10.906;2023-03-12T05:15:26;9.70;;;8.07;;
16179;SDS011;8196;49.428;10.906;2023-03-12T05:17:53;8.90;;;7.65;;
16179;SDS011;8196;49.428;10.906;2023-03-12T05:20:20;9.40;;;7.90;;
16179;SDS011;8196;49.428;10.906;2023-03-12T05:22:47;10.55;;;7.97;;
16179;SDS011;8196;49.428;10.906;2023-03-12T05:25:14;8.38;;;7.22;;
16179;SDS011;8196;49.428;10.906;2023-03-12T05:27:40;9.25;;;6.80;;
16179;SDS011;8196;49.428;10.906;2023-03-12T05:30:07;8.82;;;6.95;;
16179;SDS011;8196;49.428;10.906;2023-03-12T05:32:34;10.00;;;7.00;;
16179;SDS011;8196;49.428;10.906;2023-03-12T05:35:01;9.57;;;7.35;;
16179;SDS011;8196;49.428;10.906;2023-03-12T05:37:28;8.45;;;7.25;;
16179;SDS011;8196;49.428;10.906;2023-03-12T05:39:55;10.43;;;7.50;;
16179;SDS011;8196;49.428;10.906;2023-03-12T05:42:22;9.30;;;7.88;;
16179;SDS011;8196;49.428;10.906;2023-03-12T05:44:50;11.20;;;7.88;;
16179;SDS011;8196;49.428;10.906;2023-03-12T05:47:17;9.48;;;7.90;;
16179;SDS011;8196;49.428;10.906;2023-03-12T05:49:44;9.77;;;8.07;;
16179;SDS011;8196;49.428;10.906;2023-03-12T05:52:12;10.10;;;8.13;;
16179;SDS011;8196;49.428;10.906;2023-03-12T05:54:39;10.02;;;7.70;;
16179;SDS011;8196;49.428;10.906;2023-03-12T05:57:06;9.40;;;7.13;;
16179;SDS011;8196;49.428;10.906;2023-03-12T05:59:33;9.40;;;6.82;;
16179;SDS011;8196;49.428;10.906;2023-03-12T06:02:00;9.32;;;7.47;;
16179;SDS011;8196;49.428;10.906;2023-03-12T06:04:27;9.98;;;7.43;;
16179;SDS011;8196;49.428;10.906;2023-03-12T06:06:54;9.38;;;7.18;;
16179;SDS011;8196;49.428;10.906;2023-03-12T06:09:21;9.27;;;6.82;;
16179;SDS011;8196;49.428;10.906;2023-03-12T06:11:48;10.13;;;7.20;;
16179;SDS011;8196;49.428;10.906;2023-03-12T06:14:14;7.90;;;7.10;;
16179;SDS011;8196;49.428;10.906;2023-03-12T06:16:41;10.63;;;7.53;;
16179;SDS011;8196;49.428;10.906;2023-03-12T06:19:09;8.82;;;7.25;;
16179;SDS011;8196;49.428;10.906;2023-03-12T06:21:39;8.82;;;7.20;;
16179;SDS011;8196;49.428;10.906;2023-03-12T06:24:08;9.20;;;7.23;;
16179;SDS011;8196;49.428;10.906;2023-03-12T06:26:34;8.18;;;6.60;;
16179;SDS011;8196;49.428;10.906;2023-03-12T06:29:01;8.77;;;7.22;;
16179;SDS011;8196;49.428;10.906;2023-03-12T06:31:28;9.40;;;7.30;;
16179;SDS011;8196;49.428;10.906;2023-03-12T06:33:55;8.82;;;7.55;;
16179;SDS011;8196;49.428;10.906;2023-03-12T06:36:21;8.93;;;7.25;;
16179;SDS011;8196;49.428;10.906;2023-03-12T06:38:48;9.05;;;7.53;;
16179;SDS011;8196;49.428;10.906;2023-03-12T06:41:16;9.88;;;7.63;;
16179;SDS011;8196;49.428;10.906;2023-03-12T06:43:44;9.45;;;7.60;;
16179;SDS011;8196;49.428;10.906;2023-03-12T06:46:12;9.02;;;7.03;;
16179;SDS011;8196;49.428;10.906;2023-03-12T06:48:42;8.82;;;7.25;;
16179;SDS011;8196;49.428;10.906;2023-03-12T06:51:11;8.73;;;7.05;;
16179;SDS011;8196;49.428;10.906;2023-03-12T06:53:39;9.50;;;6.75;;
16179;SDS011;8196;49.428;10.906;2023-03-12T06:56:08;8.45;;;7.28;;
16179;SDS011;8196;49.428;10.906;2023-03-12T06:58:35;8.30;;;6.83;;
16179;SDS011;8196;49.428;10.906;2023-03-12T07:01:02;9.35;;;7.13;;
16179;SDS011;8196;49.428;10.906;2023-03-12T07:03:29;8.85;;;6.72;;
16179;SDS011;8196;49.428;10.906;2023-03-12T07:05:56;10.13;;;7.22;;
16179;SDS011;8196;49.428;10.906;2023-03-12T07:08:24;9.63;;;7.88;;
16179;SDS011;8196;49.428;10.906;2023-03-12T07:10:51;9.30;;;8.15;;
16179;SDS011;8196;49.428;10.906;2023-03-12T07:13:18;10.90;;;8.25;;
16179;SDS011;8196;49.428;10.906;2023-03-12T07:15:45;13.23;;;9.67;;
16179;SDS011;8196;49.428;10.906;2023-03-12T07:18:12;13.85;;;11.20;;
16179;SDS011;8196;49.428;10.906;2023-03-12T07:20:40;18.37;;;13.97;;
16179;SDS011;8196;49.428;10.906;2023-03-12T07:23:08;9.55;;;8.60;;
16179;SDS011;8196;49.428;10.906;2023-03-12T07:25:36;10.73;;;7.70;;
16179;SDS011;8196;49.428;10.906;2023-03-12T07:28:04;8.57;;;6.75;;
16179;SDS011;8196;49.428;10.906;2023-03-12T07:30:31;6.95;;;6.13;;
16179;SDS011;8196;49.428;10.906;2023-03-12T07:33:00;7.97;;;6.03;;
16179;SDS011;8196;49.428;10.906;2023-03-12T07:35:27;7.10;;;5.83;;
16179;SDS011;8196;49.428;10.906;2023-03-12T07:37:55;6.82;;;6.03;;
16179;SDS011;8196;49.428;10.906;2023-03-12T07:40:22;8.77;;;7.88;;
16179;SDS011;8196;49.428;10.906;2023-03-12T07:42:49;8.13;;;6.70;;
16179;SDS011;8196;49.428;10.906;2023-03-12T07:45:17;8.27;;;5.88;;
16179;SDS011;8196;49.428;10.906;2023-03-12T07:47:44;7.82;;;5.65;;
16179;SDS011;8196;49.428;10.906;2023-03-12T07:50:12;6.70;;;5.72;;
16179;SDS011;8196;49.428;10.906;2023-03-12T07:52:39;7.47;;;5.70;;
16179;SDS011;8196;49.428;10.906;2023-03-12T07:55:06;6.25;;;5.00;;
16179;SDS011;8196;49.428;10.906;2023-03-12T07:57:33;7.60;;;5.80;;
16179;SDS011;8196;49.428;10.906;2023-03-12T08:00:00;6.45;;;5.05;;
16179;SDS011;8196;49.428;10.906;2023-03-12T08:02:27;7.50;;;5.30;;
16179;SDS011;8196;49.428;10.906;2023-03-12T08:04:54;5.70;;;5.07;;
16179;SDS011;8196;49.428;10.906;2023-03-12T08:07:21;5.77;;;4.83;;
16179;SDS011;8196;49.428;10.906;2023-03-12T08:09:48;5.75;;;4.78;;
16179;SDS011;8196;49.428;10.906;2023-03-12T08:12:15;5.70;;;4.70;;
16179;SDS011;8196;49.428;10.906;2023-03-12T08:14:42;6.22;;;5.28;;
16179;SDS011;8196;49.428;10.906;2023-03-12T08:17:09;6.88;;;5.00;;
16179;SDS011;8196;49.428;10.906;2023-03-12T08:19:36;6.53;;;5.72;;
16179;SDS011;8196;49.428;10.906;2023-03-12T08:22:03;6.70;;;5.75;;
16179;SDS011;8196;49.428;10.906;2023-03-12T08:24:31;6.22;;;5.63;;
16179;SDS011;8196;49.428;10.906;2023-03-12T08:26:58;6.70;;;5.38;;
16179;SDS011;8196;49.428;10.906;2023-03-12T08:29:24;6.57;;;5.30;;
16179;SDS011;8196;49.428;10.906;2023-03-12T08:31:51;5.35;;;4.82;;
16179;SDS011;8196;49.428;10.906;2023-03-12T08:34:30;8.38;;;6.78;;
16179;SDS011;8196;49.428;10.906;2023-03-12T08:36:57;7.68;;;5.70;;
16179;SDS011;8196;49.428;10.906;2023-03-12T08:39:23;9.75;;;6.60;;
16179;SDS011;8196;49.428;10.906;2023-03-12T08:41:50;7.65;;;6.60;;
16179;SDS011;8196;49.428;10.906;2023-03-12T08:44:20;6.57;;;5.87;;
16179;SDS011;8196;49.428;10.906;2023-03-12T08:46:48;8.20;;;6.55;;
16179;SDS011;8196;49.428;10.906;2023-03-12T08:49:15;5.78;;;5.05;;
16179;SDS011;8196;49.428;10.906;2023-03-12T08:51:42;5.85;;;4.85;;
16179;SDS011;8196;49.428;10.906;2023-03-12T08:54:09;5.40;;;4.65;;
16179;SDS011;8196;49.428;10.906;2023-03-12T08:56:36;5.78;;;4.60;;
16179;SDS011;8196;49.428;10.906;2023-03-12T08:59:07;6.80;;;5.30;;
16179;SDS011;8196;49.428;10.906;2023-03-12T09:01:34;5.50;;;4.90;;
16179;SDS011;8196;49.428;10.906;2023-03-12T09:04:02;6.10;;;5.05;;
16179;SDS011;8196;49.428;10.906;2023-03-12T09:06:30;5.72;;;5.15;;
16179;SDS011;8196;49.428;10.906;2023-03-12T09:08:58;5.00;;;4.30;;
16179;SDS011;8196;49.428;10.906;2023-03-12T09:11:30;4.47;;;4.07;;
16179;SDS011;8196;49.428;10.906;2023-03-12T09:13:59;4.95;;;3.60;;
16179;SDS011;8196;49.428;10.906;2023-03-12T09:16:46;4.13;;;3.50;;
16179;SDS011;8196;49.428;10.906;2023-03-12T09:19:13;4.07;;;3.20;;
16179;SDS011;8196;49.428;10.906;2023-03-12T09:21:40;4.53;;;3.10;;
16179;SDS011;8196;49.428;10.906;2023-03-12T09:24:08;4.65;;;3.13;;
16179;SDS011;8196;49.428;10.906;2023-03-12T09:26:36;4.70;;;3.00;;
16179;SDS011;8196;49.428;10.906;2023-03-12T09:29:02;3.67;;;2.85;;
16179;SDS011;8196;49.428;10.906;2023-03-12T09:33:58;3.83;;;3.10;;
16179;SDS011;8196;49.428;10.906;2023-03-12T09:36:24;4.25;;;2.97;;
16179;SDS011;8196;49.428;10.906;2023-03-12T09:38:51;3.55;;;2.67;;
16179;SDS011;8196;49.428;10.906;2023-03-12T09:41:20;5.03;;;3.13;;
16179;SDS011;8196;49.428;10.906;2023-03-12T09:43:53;4.47;;;2.70;;
16179;SDS011;8196;49.428;10.906;2023-03-12T09:46:37;4.10;;;2.92;;
16179;SDS011;8196;49.428;10.906;2023-03-12T09:49:17;4.32;;;2.53;;
16179;SDS011;8196;49.428;10.906;2023-03-12T09:52:02;4.13;;;2.22;;
16179;SDS011;8196;49.428;10.906;2023-03-12T09:54:44;4.00;;;2.28;;
16179;SDS011;8196;49.428;10.906;2023-03-12T09:57:22;3.83;;;2.25;;
16179;SDS011;8196;49.428;10.906;2023-03-12T09:59:50;5.03;;;2.40;;
16179;SDS011;8196;49.428;10.906;2023-03-12T10:04:55;4.10;;;2.70;;
16179;SDS011;8196;49.428;10.906;2023-03-12T10:07:29;5.10;;;2.97;;
16179;SDS011;8196;49.428;10.906;2023-03-12T10:10:04;3.75;;;2.47;;
16179;SDS011;8196;49.428;10.906;2023-03-12T10:15:39;4.28;;;2.75;;
16179;SDS011;8196;49.428;10.906;2023-03-12T10:21:05;4.15;;;2.83;;
16179;SDS011;8196;49.428;10.906;2023-03-12T10:26:34;4.45;;;3.13;;
16179;SDS011;8196;49.428;10.906;2023-03-12T10:31:50;5.25;;;3.42;;
16179;SDS011;8196;49.428;10.906;2023-03-12T10:37:20;5.18;;;3.45;;
16179;SDS011;8196;49.428;10.906;2023-03-12T10:39:48;5.30;;;3.90;;
16179;SDS011;8196;49.428;10.906;2023-03-12T10:42:17;5.70;;;3.97;;
16179;SDS011;8196;49.428;10.906;2023-03-12T10:44:46;5.50;;;4.15;;
16179;SDS011;8196;49.428;10.906;2023-03-12T10:47:22;4.80;;;4.15;;
16179;SDS011;8196;49.428;10.906;2023-03-12T10:52:40;5.57;;;3.80;;
16179;SDS011;8196;49.428;10.906;2023-03-12T10:55:24;5.72;;;4.10;;
16179;SDS011;8196;49.428;10.906;2023-03-12T10:57:51;5.60;;;4.00;;
16179;SDS011;8196;49.428;10.906;2023-03-12T11:00:20;5.38;;;4.07;;
16179;SDS011;8196;49.428;10.906;2023-03-12T11:03:05;6.82;;;3.83;;
16179;SDS011;8196;49.428;10.906;2023-03-12T11:05:46;5.55;;;3.60;;
16179;SDS011;8196;49.428;10.906;2023-03-12T11:10:58;4.28;;;3.55;;
16179;SDS011;8196;49.428;10.906;2023-03-12T11:13:28;4.55;;;3.67;;
16179;SDS011;8196;49.428;10.906;2023-03-12T11:15:59;4.95;;;3.67;;
16179;SDS011;8196;49.428;10.906;2023-03-12T11:18:34;5.55;;;3.80;;
16179;SDS011;8196;49.428;10.906;2023-03-12T11:23:38;5.50;;;3.50;;
16179;SDS011;8196;49.428;10.906;2023-03-12T11:28:40;4.70;;;3.40;;
16179;SDS011;8196;49.428;10.906;2023-03-12T11:31:19;3.80;;;3.20;;
16179;SDS011;8196;49.428;10.906;2023-03-12T11:33:50;5.07;;;3.45;;
16179;SDS011;8196;49.428;10.906;2023-03-12T11:38:59;4.78;;;3.60;;
16179;SDS011;8196;49.428;10.906;2023-03-12T11:41:38;4.60;;;3.60;;
16179;SDS011;8196;49.428;10.906;2023-03-12T11:44:20;6.40;;;4.10;;
16179;SDS011;8196;49.428;10.906;2023-03-12T11:52:34;4.65;;;3.75;;
16179;SDS011;8196;49.428;10.906;2023-03-12T11:55:05;4.03;;;3.47;;
16179;SDS011;8196;49.428;10.906;2023-03-12T12:00:30;4.28;;;3.55;;
16179;SDS011;8196;49.428;10.906;2023-03-12T12:05:54;4.47;;;3.97;;
16179;SDS011;8196;49.428;10.906;2023-03-12T12:08:43;5.67;;;4.37;;
16179;SDS011;8196;49.428;10.906;2023-03-12T12:11:34;5.53;;;4.70;;
16179;SDS011;8196;49.428;10.906;2023-03-12T12:17:02;5.55;;;4.35;;
16179;SDS011;8196;49.428;10.906;2023-03-12T12:19:57;6.10;;;5.50;;
16179;SDS011;8196;49.428;10.906;2023-03-12T12:31:33;8.40;;;6.95;;
16179;SDS011;8196;49.428;10.906;2023-03-12T12:36:40;8.07;;;7.15;;
16179;SDS011;8196;49.428;10.906;2023-03-12T12:39:14;8.10;;;7.30;;
16179;SDS011;8196;49.428;10.906;2023-03-12T12:41:53;8.40;;;7.50;;
16179;SDS011;8196;49.428;10.906;2023-03-12T12:44:24;8.77;;;7.70;;
16179;SDS011;8196;49.428;10.906;2023-03-12T12:46:55;9.30;;;8.40;;
16179;SDS011;8196;49.428;10.906;2023-03-12T12:49:35;8.97;;;8.07;;
16179;SDS011;8196;49.428;10.906;2023-03-12T12:52:11;9.70;;;8.70;;
16179;SDS011;8196;49.428;10.906;2023-03-12T12:57:29;9.35;;;8.43;;
16179;SDS011;8196;49.428;10.906;2023-03-12T13:02:44;10.77;;;9.60;;
16179;SDS011;8196;49.428;10.906;2023-03-12T13:05:17;9.75;;;7.82;;
16179;SDS011;8196;49.428;10.906;2023-03-12T13:07:51;9.15;;;8.25;;
16179;SDS011;8196;49.428;10.906;2023-03-12T13:13:12;8.38;;;7.50;;
16179;SDS011;8196;49.428;10.906;2023-03-12T13:15:45;8.90;;;8.00;;
16179;SDS011;8196;49.428;10.906;2023-03-12T13:18:22;8.55;;;7.65;;
16179;SDS011;8196;49.428;10.906;2023-03-12T13:28:56;8.70;;;7.87;;
16179;SDS011;8196;49.428;10.906;2023-03-12T13:31:39;7.90;;;7.10;;
16179;SDS011;8196;49.428;10.906;2023-03-12T13:36:57;8.07;;;7.27;;
16179;SDS011;8196;49.428;10.906;2023-03-12T13:39:31;8.85;;;7.95;;
16179;SDS011;8196;49.428;10.906;2023-03-12T13:42:00;8.57;;;7.68;;
16179;SDS011;8196;49.428;10.906;2023-03-12T13:44:47;10.07;;;8.27;;
16179;SDS011;8196;49.428;10.906;2023-03-12T13:47:18;7.15;;;6.43;;
16179;SDS011;8196;49.428;10.906;2023-03-12T13:49:53;9.57;;;8.57;;
16179;SDS011;8196;49.428;10.906;2023-03-12T14:02:48;8.32;;;7.43;;
16179;SDS011;8196;49.428;10.906;2023-03-12T14:05:22;7.18;;;6.47;;
16179;SDS011;8196;49.428;10.906;2023-03-12T14:10:22;7.17;;;6.40;;
16179;SDS011;8196;49.428;10.906;2023-03-12T14:13:01;7.30;;;6.40;;
16179;SDS011;8196;49.428;10.906;2023-03-12T14:18:12;6.50;;;5.80;;
16179;SDS011;8196;49.428;10.906;2023-03-12T14:20:49;7.13;;;6.43;;
16179;SDS011;8196;49.428;10.906;2023-03-12T14:23:21;6.37;;;5.77;;
16179;SDS011;8196;49.428;10.906;2023-03-12T14:25:55;5.70;;;4.80;;
16179;SDS011;8196;49.428;10.906;2023-03-12T14:28:28;7.35;;;6.65;;
16179;SDS011;8196;49.428;10.906;2023-03-12T14:30:59;6.00;;;5.35;;
16179;SDS011;8196;49.428;10.906;2023-03-12T14:33:33;6.95;;;5.30;;
16179;SDS011;8196;49.428;10.906;2023-03-12T14:36:14;5.32;;;4.82;;
16179;SDS011;8196;49.428;10.906;2023-03-12T14:38:45;7.35;;;6.20;;
16179;SDS011;8196;49.428;10.906;2023-03-12T14:43:43;5.45;;;4.95;;
16179;SDS011;8196;49.428;10.906;2023-03-12T14:46:16;9.85;;;7.88;;
16179;SDS011;8196;49.428;10.906;2023-03-12T14:48:46;6.32;;;5.63;;
16179;SDS011;8196;49.428;10.906;2023-03-12T14:51:20;7.53;;;6.50;;
16179;SDS011;8196;49.428;10.906;2023-03-12T14:53:49;9.27;;;6.85;;
16179;SDS011;8196;49.428;10.906;2023-03-12T14:56:21;6.25;;;4.88;;
16179;SDS011;8196;49.428;10.906;2023-03-12T14:58:51;8.15;;;6.32;;
16179;SDS011;8196;49.428;10.906;2023-03-12T15:01:19;6.40;;;4.95;;
16179;SDS011;8196;49.428;10.906;2023-03-12T15:03:51;8.15;;;6.40;;
16179;SDS011;8196;49.428;10.906;2023-03-12T15:06:30;10.27;;;7.25;;
16179;SDS011;8196;49.428;10.906;2023-03-12T15:09:00;7.63;;;5.78;;
16179;SDS011;8196;49.428;10.906;2023-03-12T15:11:30;7.93;;;6.18;;
16179;SDS011;8196;49.428;10.906;2023-03-12T15:14:07;9.20;;;6.63;;
16179;SDS011;8196;49.428;10.906;2023-03-12T15:16:39;6.32;;;4.97;;
16179;SDS011;8196;49.428;10.906;2023-03-12T15:19:10;11.88;;;7.20;;
16179;SDS011;8196;49.428;10.906;2023-03-12T15:21:39;7.97;;;5.78;;
16179;SDS011;8196;49.428;10.906;2023-03-12T15:24:06;9.20;;;6.00;;
16179;SDS011;8196;49.428;10.906;2023-03-12T15:26:38;9.73;;;5.97;;
16179;SDS011;8196;49.428;10.906;2023-03-12T15:29:16;11.98;;;8.18;;
16179;SDS011;8196;49.428;10.906;2023-03-12T15:31:52;7.13;;;4.40;;
16179;SDS011;8196;49.428;10.906;2023-03-12T15:34:37;8.43;;;5.40;;
16179;SDS011;8196;49.428;10.906;2023-03-12T15:39:54;8.50;;;5.05;;
16179;SDS011;8196;49.428;10.906;2023-03-12T15:42:22;8.15;;;4.75;;
16179;SDS011;8196;49.428;10.906;2023-03-12T15:44:53;10.00;;;5.10;;
16179;SDS011;8196;49.428;10.906;2023-03-12T15:47:23;8.48;;;4.35;;
16179;SDS011;8196;49.428;10.906;2023-03-12T15:49:54;7.10;;;3.80;;
16179;SDS011;8196;49.428;10.906;2023-03-12T15:52:25;7.90;;;4.00;;
16179;SDS011;8196;49.428;10.906;2023-03-12T15:57:44;6.25;;;3.55;;
16179;SDS011;8196;49.428;10.906;2023-03-12T16:02:55;6.38;;;4.50;;
16179;SDS011;8196;49.428;10.906;2023-03-12T16:08:00;5.40;;;3.75;;
16179;SDS011;8196;49.428;10.906;2023-03-12T16:10:37;6.07;;;4.00;;
16179;SDS011;8196;49.428;10.906;2023-03-12T16:13:04;7.45;;;4.43;;
16179;SDS011;8196;49.428;10.906;2023-03-12T16:15:35;7.70;;;5.00;;
16179;SDS011;8196;49.428;10.906;2023-03-12T16:18:03;7.43;;;3.90;;
16179;SDS011;8196;49.428;10.906;2023-03-12T16:20:29;6.43;;;3.70;;
16179;SDS011;8196;49.428;10.906;2023-03-12T16:22:56;7.28;;;3.63;;
16179;SDS011;8196;49.428;10.906;2023-03-12T16:25:23;5.88;;;3.65;;
16179;SDS011;8196;49.428;10.906;2023-03-12T16:27:52;5.73;;;3.50;;
16179;SDS011;8196;49.428;10.906;2023-03-12T16:30:29;6.15;;;3.38;;
16179;SDS011;8196;49.428;10.906;2023-03-12T16:32:58;6.05;;;3.78;;
16179;SDS011;8196;49.428;10.906;2023-03-12T16:35:26;5.55;;;3.60;;
16179;SDS011;8196;49.428;10.906;2023-03-12T16:37:56;8.32;;;4.43;;
16179;SDS011;8196;49.428;10.906;2023-03-12T16:40:27;8.65;;;4.60;;
16179;SDS011;8196;49.428;10.906;2023-03-12T16:42:59;8.70;;;5.28;;
16179;SDS011;8196;49.428;10.906;2023-03-12T16:45:29;8.18;;;5.00;;
16179;SDS011;8196;49.428;10.906;2023-03-12T16:47:59;6.78;;;4.40;;
16179;SDS011;8196;49.428;10.906;2023-03-12T16:50:28;7.72;;;4.57;;